createdAt,value
2022-07-29T00:01:54.457Z,75.88
2022-07-29T00:04:23.914Z,76.62
2022-07-29T00:06:51.154Z,77.15
2022-07-29T00:09:21.035Z,74.40
2022-07-29T00:11:51.583Z,73.84
2022-07-29T00:14:19.172Z,74.28
2022-07-29T00:16:46.592Z,75.72
2022-07-29T00:19:13.935Z,75.85
2022-07-29T00:21:41.292Z,74.99
2022-07-29T00:24:09.188Z,73.69
2022-07-29T00:26:36.824Z,74.67
2022-07-29T00:29:33.111Z,75.08
2022-07-29T00:31:54.271Z,75.19
2022-07-29T00:34:41.465Z,75.63
2022-07-29T00:37:09.131Z,75.70
2022-07-29T00:39:36.423Z,75.06
2022-07-29T00:42:06.250Z,75.00
2022-07-29T00:44:43.706Z,73.38
2022-07-29T00:47:13.359Z,73.86
2022-07-29T00:49:42.971Z,75.46
2022-07-29T00:52:12.307Z,74.62
2022-07-29T00:54:44.534Z,73.30
2022-07-29T00:57:17.681Z,75.50
2022-07-29T00:59:44.943Z,76.65
2022-07-29T01:02:12.627Z,76.37
2022-07-29T01:04:41.313Z,77.51
2022-07-29T01:07:09.040Z,77.51
2022-07-29T01:09:46.007Z,77.56
2022-07-29T01:12:21.267Z,78.97
2022-07-29T01:14:51.809Z,78.20
2022-07-29T01:17:32.791Z,76.85
2022-07-29T01:20:22.944Z,76.37
2022-07-29T01:23:42.170Z,78.63
2022-07-29T01:27:25.179Z,78.04
2022-07-29T01:30:02.467Z,78.86
2022-07-29T01:33:51.409Z,77.72
2022-07-29T01:37:34.122Z,80.21
2022-07-29T01:41:16.849Z,78.94
2022-07-29T01:44:59.498Z,78.72
2022-07-29T01:47:44.736Z,79.91
2022-07-29T01:51:28.311Z,78.50
2022-07-29T01:55:10.956Z,78.45
2022-07-29T01:58:53.827Z,78.16
2022-07-29T02:02:42.825Z,78.70
2022-07-29T02:06:28.494Z,78.43
2022-07-29T02:10:11.425Z,78.23
2022-07-29T02:13:54.618Z,76.90
2022-07-29T02:17:38.885Z,77.59
2022-07-29T02:20:18.599Z,74.97
2022-07-29T02:22:52.463Z,75.60
2022-07-29T02:25:23.471Z,75.61
2022-07-29T02:27:56.612Z,76.08
2022-07-29T02:30:26.714Z,76.48
2022-07-29T02:32:56.394Z,76.93
2022-07-29T02:35:26.980Z,76.27
2022-07-29T02:38:14.122Z,76.58
2022-07-29T02:40:47.511Z,76.97
2022-07-29T02:43:18.167Z,75.30
2022-07-29T02:45:55.340Z,75.33
2022-07-29T02:48:40.833Z,75.21
2022-07-29T02:51:44.179Z,75.13
2022-07-29T02:55:20.420Z,74.99
2022-07-29T02:58:07.397Z,75.42
2022-07-29T03:00:40.384Z,76.24
2022-07-29T03:03:16.402Z,73.83
2022-07-29T03:05:43.932Z,74.47
2022-07-29T03:08:14.030Z,74.79
2022-07-29T03:10:46.526Z,74.84
2022-07-29T03:13:15.454Z,74.73
2022-07-29T03:15:48.418Z,75.45
2022-07-29T03:18:16.846Z,75.54
2022-07-29T03:20:44.697Z,76.51
2022-07-29T03:23:20.795Z,76.12
2022-07-29T03:25:48.288Z,76.23
2022-07-29T03:28:15.855Z,76.32
2022-07-29T03:30:47.032Z,77.04
2022-07-29T03:33:15.359Z,77.01
2022-07-29T03:35:43.281Z,76.94
2022-07-29T03:38:16.096Z,75.37
2022-07-29T03:41:07.359Z,75.94
2022-07-29T03:43:49.608Z,76.27
2022-07-29T03:46:19.237Z,74.88
2022-07-29T03:48:51.976Z,74.78
2022-07-29T03:51:19.332Z,75.22
2022-07-29T03:54:10.084Z,76.95
2022-07-29T03:56:45.512Z,76.30
2022-07-29T03:59:16.538Z,74.85
2022-07-29T04:01:47.096Z,75.85
2022-07-29T04:04:18.539Z,75.09
2022-07-29T04:06:48.397Z,73.58
2022-07-29T04:09:18.425Z,74.63
2022-07-29T04:12:02.245Z,74.78
2022-07-29T04:14:36.898Z,73.60
2022-07-29T04:17:14.420Z,73.10
2022-07-29T04:19:44.525Z,72.23
2022-07-29T04:22:16.133Z,71.19
2022-07-29T04:24:44.592Z,71.88
2022-07-29T04:27:17.782Z,70.37
2022-07-29T04:29:56.959Z,70.97
2022-07-29T04:32:27.139Z,70.99
2022-07-29T04:34:54.865Z,72.22
2022-07-29T04:37:24.885Z,71.35
2022-07-29T04:39:57.592Z,70.12
2022-07-29T04:42:27.970Z,72.07
2022-07-29T04:45:01.249Z,70.81
2022-07-29T04:47:29.146Z,68.29
2022-07-29T04:49:57.315Z,65.28
2022-07-29T04:52:24.606Z,63.75
2022-07-29T04:54:52.592Z,64.69
2022-07-29T04:57:20.266Z,64.95
2022-07-29T04:59:47.767Z,65.57
2022-07-29T05:02:18.239Z,65.82
2022-07-29T05:04:49.438Z,65.65
2022-07-29T05:07:16.950Z,64.04
2022-07-29T05:09:44.542Z,62.47
2022-07-29T05:12:13.152Z,60.81
2022-07-29T05:14:40.911Z,60.24
2022-07-29T05:17:08.871Z,57.62
2022-07-29T05:19:41.477Z,54.86
2022-07-29T05:22:14.331Z,51.86
2022-07-29T05:24:45.369Z,50.83
2022-07-29T05:27:22.395Z,50.74
2022-07-29T05:29:53.313Z,51.59
2022-07-29T05:32:25.049Z,51.08
2022-07-29T05:35:06.030Z,50.34
2022-07-29T05:37:42.285Z,48.24
2022-07-29T05:40:13.474Z,46.51
2022-07-29T05:42:49.842Z,43.42
2022-07-29T05:45:25.134Z,42.69
2022-07-29T05:47:55.996Z,43.29
2022-07-29T05:50:28.747Z,44.68
2022-07-29T05:52:56.573Z,44.90
2022-07-29T05:55:43.068Z,43.87
2022-07-29T05:58:18.482Z,40.89
2022-07-29T06:01:01.790Z,39.79
2022-07-29T06:03:30.098Z,40.25
2022-07-29T06:05:57.779Z,38.35
2022-07-29T06:08:28.375Z,38.91
2022-07-29T06:10:58.530Z,36.39
2022-07-29T06:13:34.664Z,35.82
2022-07-29T06:16:06.501Z,37.63
2022-07-29T06:18:37.388Z,40.50
2022-07-29T06:21:18.759Z,41.10
2022-07-29T06:23:47.879Z,44.94
2022-07-29T06:26:16.018Z,41.13
2022-07-29T06:28:44.569Z,36.66
2022-07-29T06:31:14.943Z,34.30
2022-07-29T06:33:46.023Z,32.08
2022-07-29T06:36:13.689Z,30.37
2022-07-29T06:38:47.561Z,30.49
2022-07-29T06:41:18.540Z,30.41
2022-07-29T06:43:52.571Z,29.30
2022-07-29T06:46:24.465Z,27.99
2022-07-29T06:48:55.569Z,26.41
2022-07-29T06:51:24.189Z,26.64
2022-07-29T06:53:59.737Z,27.19
2022-07-29T06:56:42.062Z,25.61
2022-07-29T06:59:13.309Z,25.26
2022-07-29T07:01:56.967Z,23.63
2022-07-29T07:04:28.135Z,22.45
2022-07-29T07:07:02.344Z,21.66
2022-07-29T07:09:40.381Z,22.98
2022-07-29T07:12:17.632Z,25.97
2022-07-29T07:14:45.797Z,31.00
2022-07-29T07:17:15.593Z,34.03
2022-07-29T07:19:52.256Z,34.73
2022-07-29T07:22:26.101Z,34.29
2022-07-29T07:25:19.112Z,34.79
2022-07-29T07:27:46.902Z,32.08
2022-07-29T07:30:15.221Z,30.03
2022-07-29T07:32:42.905Z,30.97
2022-07-29T07:35:11.979Z,32.22
2022-07-29T07:37:45.566Z,34.16
2022-07-29T07:40:18.639Z,34.88
2022-07-29T07:42:46.492Z,34.29
2022-07-29T07:45:16.102Z,36.76
2022-07-29T07:47:44.632Z,39.01
2022-07-29T07:50:18.853Z,40.81
2022-07-29T07:52:58.560Z,36.15
2022-07-29T07:55:27.416Z,31.83
2022-07-29T07:57:56.610Z,28.94
2022-07-29T08:00:24.794Z,26.41
2022-07-29T08:02:52.261Z,26.04
2022-07-29T08:05:19.812Z,26.57
2022-07-29T08:07:48.311Z,25.37
2022-07-29T08:10:37.358Z,25.12
2022-07-29T08:13:11.806Z,26.20
2022-07-29T08:15:41.991Z,25.56
2022-07-29T08:18:09.837Z,23.63
2022-07-29T08:20:39.921Z,24.98
2022-07-29T08:23:11.758Z,26.46
2022-07-29T08:25:40.370Z,27.14
2022-07-29T08:28:10.881Z,25.99
2022-07-29T08:30:38.490Z,26.40
2022-07-29T08:33:06.114Z,26.58
2022-07-29T08:35:35.525Z,25.29
2022-07-29T08:38:04.441Z,24.17
2022-07-29T08:40:34.814Z,24.18
2022-07-29T08:43:09.890Z,22.31
2022-07-29T08:45:51.274Z,21.21
2022-07-29T08:48:25.738Z,22.07
2022-07-29T08:50:57.833Z,20.52
2022-07-29T08:53:28.203Z,19.03
2022-07-29T08:56:02.102Z,19.92
2022-07-29T08:58:37.041Z,19.86
2022-07-29T09:01:12.225Z,18.24
2022-07-29T09:03:47.261Z,17.46
2022-07-29T09:06:22.527Z,15.82
2022-07-29T09:08:50.926Z,14.56
2022-07-29T09:11:20.832Z,13.91
2022-07-29T09:13:50.483Z,12.64
2022-07-29T09:16:37.222Z,13.65
2022-07-29T09:19:29.929Z,13.67
2022-07-29T09:22:03.134Z,12.32
2022-07-29T09:24:48.275Z,11.76
2022-07-29T09:27:31.181Z,14.55
2022-07-29T09:30:15.875Z,14.22
2022-07-29T09:33:03.682Z,13.70
2022-07-29T09:35:32.240Z,13.46
2022-07-29T09:38:17.637Z,13.62
2022-07-29T09:41:05.862Z,12.92
2022-07-29T09:43:35.319Z,12.96
2022-07-29T09:46:14.440Z,12.11
2022-07-29T09:48:42.155Z,11.55
2022-07-29T09:51:24.233Z,12.81
2022-07-29T09:54:08.220Z,12.54
2022-07-29T09:56:47.132Z,12.72
2022-07-29T09:59:27.940Z,13.93
2022-07-29T10:01:58.056Z,13.92
2022-07-29T10:04:41.507Z,16.10
2022-07-29T10:07:09.492Z,19.33
2022-07-29T10:09:37.719Z,18.84
2022-07-29T10:12:10.197Z,17.25
2022-07-29T10:14:40.941Z,15.88
2022-07-29T10:17:11.523Z,13.95
2022-07-29T10:19:40.737Z,13.05
2022-07-29T10:22:11.509Z,13.21
2022-07-29T10:24:45.952Z,14.33
2022-07-29T10:27:27.112Z,15.55
2022-07-29T10:29:57.368Z,15.80
2022-07-29T10:33:18.761Z,14.42
2022-07-29T10:36:47.697Z,16.61
2022-07-29T10:40:53.073Z,17.17
2022-07-29T10:44:04.874Z,17.58
2022-07-29T10:46:42.975Z,18.13
2022-07-29T10:50:26.729Z,17.91
2022-07-29T10:52:59.603Z,18.74
2022-07-29T11:00:04.950Z,20.51
2022-07-29T11:03:57.856Z,21.19
2022-07-29T11:07:03.797Z,21.75
2022-07-29T11:09:37.443Z,23.20
2022-07-29T11:12:37.728Z,24.64
2022-07-29T11:15:10.039Z,26.07
2022-07-29T11:17:59.658Z,27.05
2022-07-29T11:20:50.997Z,27.52
2022-07-29T11:24:35.782Z,29.01
2022-07-29T11:28:27.081Z,30.69
2022-07-29T11:32:15.756Z,41.26
2022-07-29T11:34:48.596Z,54.35
2022-07-29T11:37:27.631Z,60.74
2022-07-29T11:40:01.564Z,72.18
2022-07-29T11:42:33.058Z,79.99
2022-07-29T11:45:41.902Z,95.74
2022-07-29T11:48:28.334Z,92.00
2022-07-29T11:50:58.588Z,87.93
2022-07-29T11:53:32.890Z,81.53
2022-07-29T11:56:02.459Z,79.96
2022-07-29T11:58:32.159Z,78.81
2022-07-29T12:01:19.105Z,82.84
2022-07-29T12:03:48.933Z,84.23
2022-07-29T12:06:18.078Z,85.43
2022-07-29T12:09:14.462Z,80.65
2022-07-29T12:11:47.328Z,76.41
2022-07-29T12:14:34.743Z,78.54
2022-07-29T12:17:06.385Z,81.14
2022-07-29T12:19:46.260Z,81.00
2022-07-29T12:22:44.450Z,85.54
2022-07-29T12:25:32.326Z,87.66
2022-07-29T12:28:14.128Z,85.71
2022-07-29T12:30:51.633Z,86.29
2022-07-29T12:33:30.762Z,85.40
2022-07-29T12:36:14.313Z,85.52
2022-07-29T12:38:50.732Z,85.43
2022-07-29T12:41:21.161Z,85.18
2022-07-29T12:43:59.268Z,86.30
2022-07-29T12:46:40.837Z,85.78
2022-07-29T12:49:08.448Z,85.01
2022-07-29T12:51:46.950Z,83.62
2022-07-29T12:54:39.977Z,81.80
2022-07-29T12:57:07.572Z,81.63
2022-07-29T13:00:14.431Z,85.67
2022-07-29T13:03:28.177Z,80.02
2022-07-29T13:05:59.205Z,78.47
2022-07-29T13:08:38.826Z,80.51
2022-07-29T13:12:27.874Z,84.41
2022-07-29T13:14:55.696Z,85.11
2022-07-29T13:18:41.768Z,86.44
2022-07-29T13:21:27.970Z,80.03
2022-07-29T13:24:09.079Z,76.46
2022-07-29T13:26:45.527Z,76.52
2022-07-29T13:29:17.703Z,76.30
2022-07-29T13:31:46.049Z,80.31
2022-07-29T13:35:30.720Z,82.72
2022-07-29T13:39:16.450Z,82.23
2022-07-29T13:41:44.081Z,83.39
2022-07-29T13:45:30.807Z,83.91
2022-07-29T13:47:58.333Z,83.40
2022-07-29T13:51:44.683Z,84.78
2022-07-29T13:54:14.415Z,84.35
2022-07-29T13:56:41.740Z,85.05
2022-07-29T14:00:24.817Z,83.83
2022-07-29T14:02:52.311Z,79.03
2022-07-29T14:05:19.694Z,75.04
2022-07-29T14:07:46.936Z,81.89
2022-07-29T14:10:18.399Z,78.66
2022-07-29T14:12:47.218Z,81.67
2022-07-29T14:15:18.286Z,80.41
2022-07-29T14:17:45.525Z,82.38
2022-07-29T14:20:13.190Z,83.72
2022-07-29T14:22:42.602Z,82.67
2022-07-29T14:25:14.925Z,79.28
2022-07-29T14:27:46.392Z,80.35
2022-07-29T14:30:14.246Z,73.11
2022-07-29T14:32:44.377Z,71.20
2022-07-29T14:35:11.787Z,68.81
2022-07-29T14:37:40.820Z,69.95
2022-07-29T14:40:10.514Z,73.47
2022-07-29T14:42:38.917Z,69.84
2022-07-29T14:45:10.205Z,74.21
2022-07-29T14:47:43.232Z,68.74
2022-07-29T14:50:15.467Z,71.85
2022-07-29T14:52:43.179Z,67.86
2022-07-29T14:55:16.464Z,70.67
2022-07-29T14:57:54.341Z,72.26
2022-07-29T15:00:27.403Z,69.26
2022-07-29T15:03:02.299Z,67.52
2022-07-29T15:05:34.142Z,65.91
2022-07-29T15:08:02.396Z,68.66
2022-07-29T15:10:30.366Z,68.76
2022-07-29T15:12:58.310Z,67.62
2022-07-29T15:15:28.418Z,66.16
2022-07-29T15:18:01.368Z,69.35
2022-07-29T15:20:32.724Z,65.03
2022-07-29T15:23:05.326Z,67.32
2022-07-29T15:25:33.957Z,66.94
2022-07-29T15:28:03.849Z,69.00
2022-07-29T15:30:34.843Z,64.04
2022-07-29T15:33:04.365Z,66.27
2022-07-29T15:35:40.444Z,65.19
2022-07-29T15:39:05.353Z,61.14
2022-07-29T15:41:46.385Z,60.33
2022-07-29T15:44:17.049Z,60.27
2022-07-29T15:47:06.374Z,60.62
2022-07-29T15:49:48.178Z,60.15
2022-07-29T15:52:25.693Z,60.47
2022-07-29T15:54:58.258Z,58.42
2022-07-29T15:57:26.063Z,58.92
2022-07-29T15:59:53.985Z,59.36
2022-07-29T16:02:27.252Z,62.19
2022-07-29T16:04:55.116Z,58.47
2022-07-29T16:07:22.406Z,59.12
2022-07-29T16:09:53.202Z,58.98
2022-07-29T16:12:23.016Z,55.57
2022-07-29T16:14:51.505Z,57.90
2022-07-29T16:17:21.193Z,56.97
2022-07-29T16:19:54.493Z,57.08
2022-07-29T16:22:24.428Z,56.05
2022-07-29T16:24:57.207Z,55.15
2022-07-29T16:27:27.145Z,52.35
2022-07-29T16:30:04.467Z,54.26
2022-07-29T16:32:32.083Z,58.19
2022-07-29T16:35:02.082Z,55.83
2022-07-29T16:37:33.534Z,56.89
2022-07-29T16:40:01.933Z,54.38
2022-07-29T16:42:46.226Z,56.30
2022-07-29T16:45:17.441Z,55.87
2022-07-29T16:47:48.644Z,55.24
2022-07-29T16:50:16.631Z,56.64
2022-07-29T16:52:43.871Z,57.46
2022-07-29T16:55:13.512Z,56.67
2022-07-29T16:57:42.673Z,57.28
2022-07-29T17:00:12.862Z,54.92
2022-07-29T17:02:43.068Z,57.17
2022-07-29T17:05:12.353Z,56.40
2022-07-29T17:07:42.918Z,56.43
2022-07-29T17:10:11.679Z,55.64
2022-07-29T17:12:49.376Z,57.34
2022-07-29T17:15:20.386Z,55.41
2022-07-29T17:17:55.197Z,57.01
2022-07-29T17:20:27.527Z,57.35
2022-07-29T17:23:00.382Z,56.11
2022-07-29T17:25:33.603Z,58.86
2022-07-29T17:28:03.269Z,59.06
2022-07-29T17:30:55.780Z,59.16
2022-07-29T17:33:25.580Z,59.28
2022-07-29T17:36:15.346Z,60.38
2022-07-29T17:38:43.864Z,60.06
2022-07-29T17:41:12.519Z,60.72
2022-07-29T17:43:40.248Z,60.24
2022-07-29T17:46:10.358Z,60.37
2022-07-29T17:48:40.086Z,59.26
2022-07-29T17:51:08.765Z,60.00
2022-07-29T17:53:39.678Z,59.44
2022-07-29T17:56:08.154Z,59.45
2022-07-29T17:58:36.485Z,59.29
2022-07-29T18:01:04.419Z,59.46
2022-07-29T18:03:32.565Z,59.14
2022-07-29T18:06:01.551Z,60.17
2022-07-29T18:08:35.034Z,60.26
2022-07-29T18:11:03.619Z,59.41
2022-07-29T18:13:33.541Z,57.33
2022-07-29T18:16:14.964Z,57.63
2022-07-29T18:18:46.040Z,56.17
2022-07-29T18:21:41.113Z,54.11
2022-07-29T18:24:20.831Z,54.39
2022-07-29T18:26:48.977Z,56.39
2022-07-29T18:29:23.161Z,55.99
2022-07-29T18:31:51.387Z,54.91
2022-07-29T18:34:19.657Z,55.79
2022-07-29T18:36:51.235Z,57.94
2022-07-29T18:39:22.066Z,57.62
2022-07-29T18:41:52.393Z,58.97
2022-07-29T18:44:30.512Z,60.52
2022-07-29T18:47:00.173Z,62.10
2022-07-29T18:49:33.305Z,63.18
2022-07-29T18:52:01.460Z,63.70
2022-07-29T18:55:27.423Z,64.42
2022-07-29T18:58:02.066Z,64.33
2022-07-29T19:00:35.957Z,64.76
2022-07-29T19:03:12.721Z,65.65
2022-07-29T19:05:56.087Z,65.68
2022-07-29T19:08:34.278Z,65.74
2022-07-29T19:11:14.839Z,65.24
2022-07-29T19:13:42.646Z,65.70
2022-07-29T19:16:35.182Z,66.01
2022-07-29T19:19:13.220Z,67.05
2022-07-29T19:21:42.146Z,66.97
2022-07-29T19:24:15.257Z,67.92
2022-07-29T19:26:49.537Z,68.83
2022-07-29T19:29:18.779Z,67.58
2022-07-29T19:31:48.512Z,68.20
2022-07-29T19:34:16.281Z,68.37
2022-07-29T19:36:43.888Z,69.33
2022-07-29T19:39:36.818Z,71.35
2022-07-29T19:42:05.530Z,69.69
2022-07-29T19:44:35.964Z,69.99
2022-07-29T19:47:05.171Z,70.49
2022-07-29T19:49:37.671Z,70.79
2022-07-29T19:52:10.971Z,71.20
2022-07-29T19:54:38.933Z,70.95
2022-07-29T19:57:06.808Z,70.92
2022-07-29T19:59:34.591Z,70.78
2022-07-29T20:02:10.737Z,70.06
2022-07-29T20:04:50.301Z,68.37
2022-07-29T20:07:24.861Z,67.08
2022-07-29T20:09:55.735Z,68.07
2022-07-29T20:12:24.299Z,67.92
2022-07-29T20:14:51.998Z,68.48
2022-07-29T20:17:22.499Z,68.28
2022-07-29T20:19:53.698Z,68.62
2022-07-29T20:22:27.488Z,68.32
2022-07-29T20:24:55.339Z,69.16
2022-07-29T20:27:23.253Z,70.00
2022-07-29T20:29:51.079Z,70.25
2022-07-29T20:32:19.547Z,69.24
2022-07-29T20:34:47.010Z,69.64
2022-07-29T20:38:33.074Z,69.71
2022-07-29T20:41:07.465Z,72.72
2022-07-29T20:44:56.942Z,71.46
2022-07-29T20:47:36.462Z,72.23
2022-07-29T20:51:20.549Z,73.90
2022-07-29T20:55:12.184Z,73.28
2022-07-29T20:57:40.211Z,71.87
2022-07-29T21:01:23.614Z,71.92
2022-07-29T21:03:50.902Z,72.91
2022-07-29T21:07:33.679Z,74.62
2022-07-29T21:11:16.307Z,72.33
2022-07-29T21:13:45.490Z,71.15
2022-07-29T21:16:14.860Z,72.87
2022-07-29T21:18:47.238Z,73.64
2022-07-29T21:21:16.470Z,73.32
2022-07-29T21:23:45.878Z,73.95
2022-07-29T21:26:17.916Z,72.81
2022-07-29T21:30:00.918Z,71.86
2022-07-29T21:33:50.753Z,73.27
2022-07-29T21:39:11.329Z,73.29
2022-07-29T21:41:38.796Z,73.17
2022-07-29T21:44:08.846Z,72.81
2022-07-29T21:46:36.610Z,73.00
2022-07-29T21:49:04.246Z,73.92
2022-07-29T21:51:31.520Z,73.69
2022-07-29T21:53:58.879Z,73.42
2022-07-29T21:56:32.872Z,72.93
2022-07-29T21:59:00.318Z,72.23
2022-07-29T22:01:27.751Z,72.69
2022-07-29T22:03:58.741Z,72.22
2022-07-29T22:06:26.111Z,72.96
2022-07-29T22:08:54.994Z,74.30
2022-07-29T22:11:32.859Z,72.71
2022-07-29T22:14:20.952Z,72.32
2022-07-29T22:16:58.013Z,73.73
2022-07-29T22:19:46.803Z,74.08
2022-07-29T22:23:30.306Z,72.73
2022-07-29T22:27:18.246Z,73.72
2022-07-29T22:29:47.888Z,72.73
2022-07-29T22:32:38.243Z,72.65
2022-07-29T22:35:07.822Z,70.73
2022-07-29T22:37:38.042Z,72.25
2022-07-29T22:40:07.349Z,72.50
2022-07-29T22:42:43.662Z,71.14
2022-07-29T22:45:20.571Z,71.83
2022-07-29T22:49:29.842Z,72.65
2022-07-29T22:52:11.284Z,74.71
2022-07-29T22:54:46.076Z,73.96
2022-07-29T22:58:29.409Z,74.31
2022-07-29T23:00:58.309Z,75.85
2022-07-29T23:03:26.451Z,75.09
2022-07-29T23:07:13.244Z,75.00
2022-07-29T23:09:40.550Z,73.42
2022-07-29T23:12:08.659Z,73.17
2022-07-29T23:14:36.073Z,73.22
2022-07-29T23:17:04.688Z,73.66
2022-07-29T23:20:09.795Z,74.70
2022-07-29T23:22:40.792Z,75.94
2022-07-29T23:25:08.842Z,76.26
2022-07-29T23:27:50.513Z,76.38
2022-07-29T23:31:13.239Z,75.34
2022-07-29T23:34:59.804Z,74.73
2022-07-29T23:37:28.836Z,73.93
2022-07-29T23:41:12.693Z,73.36
2022-07-29T23:45:03.622Z,74.02
2022-07-29T23:49:01.246Z,73.63
2022-07-29T23:53:16.795Z,73.67
2022-07-29T23:57:12.963Z,74.47
